Thomas G. Thompson — KTDQ — position and weather

sailwx.info

Track history (hours):
 
Tides and Currents Weather Stations Pressure Air Temp Water Temp Dewpoint Dewpoint Depression Visibility Wind Speed Wind Dir Waves Ship Positions

Oceanographic research ship Thomas G. Thompson (USA)

Ship's website: http://www.ocean.washington.edu/vessels/TGT/tgt.html

Detailed information on ship capabilities available from University of Delaware's Ocean Information Center.

Owner: UNIVERSITY OF WASHINGTON, SEATTLE, WA. More information available from US FCC via Universal Licensing System and Coast Guard Vessel Documentation Center.

Last reported at 2017-Dec-11 16:59 UTC. Time now 2017-Dec-13 13:15 UTC.
Position N 47°35' W 122°21'.

Type: Other ship. MMSI: 366345000.

Date/timePositionNaut miles runAvg speedWind from/ knotsBaromVisibWave heightAir tempDewpointWater temp
2017-Dec-11 16:59N 47°35' W 122°21'0 0.0
2017-Dec-11 16:29N 47°35' W 122°21'0 0.0
2017-Dec-11 15:59N 47°35' W 122°21'0 0.0
2017-Dec-11 15:29N 47°35' W 122°21'0 0.0
2017-Dec-11 14:59N 47°35' W 122°21'0 0.0
2017-Dec-11 14:30N 47°35' W 122°21'0 0.0
2017-Dec-11 13:59N 47°35' W 122°21'0 0.0
2017-Dec-11 13:29N 47°35' W 122°21'0 0.0
2017-Dec-11 12:59N 47°35' W 122°21'0 0.0
2017-Dec-11 12:26N 47°35' W 122°21'0 0.0
2017-Dec-11 11:59N 47°35' W 122°21'0 0.0
2017-Dec-11 11:29N 47°35' W 122°21'0 0.0
2017-Dec-11 10:59N 47°35' W 122°21'0 0.0
2017-Dec-11 10:29N 47°35' W 122°21'0 0.0
2017-Dec-11 09:59N 47°35' W 122°21'0 0.0
2017-Dec-11 09:29N 47°35' W 122°21'0 0.0
2017-Dec-11 08:59N 47°35' W 122°21'0 0.0
2017-Dec-11 08:29N 47°35' W 122°21'0 0.0
2017-Dec-11 07:59N 47°35' W 122°21'0 0.0
2017-Dec-11 07:31N 47°35' W 122°21'1 1.2
2017-Dec-11 07:00N 47°36' W 122°22'510.4
2017-Dec-11 06:30N 47°40' W 122°27'612.6
2017-Dec-11 06:01N 47°46' W 122°25'510.1
2017-Dec-11 05:31N 47°51' W 122°23'0 0.5
2017-Dec-11 05:00N 47°51' W 122°23'1 1.3
2017-Dec-11 04:31N 47°51' W 122°23'1 1.1
2017-Dec-11 04:00N 47°52' W 122°23'0 0.5
2017-Dec-11 03:30N 47°52' W 122°23'1 2.6
2017-Dec-11 03:01N 47°51' W 122°24'1 2.6
2017-Dec-11 02:30N 47°52' W 122°24'0 0.8
2017-Dec-11 02:00N 47°52' W 122°24'0 0.5
2017-Dec-11 01:30N 47°52' W 122°23'2 3.6
2017-Dec-11 01:00N 47°51' W 122°25'4 7.1
2017-Dec-11 00:30N 47°53' W 122°22'3 6.0
2017-Dec-11 00:00N 47°51' W 122°25'2 4.1
2017-Dec-10 23:30N 47°53' W 122°23'2 3.6
2017-Dec-10 23:00N 47°51' W 122°25'0 1.0
2017-Dec-10 22:30N 47°51' W 122°24'0 1.0
2017-Dec-10 22:00N 47°52' W 122°23'0 0.7
2017-Dec-10 21:30N 47°51' W 122°23'0 0.5
2017-Dec-10 21:00N 47°51' W 122°23'0 0.9
2017-Dec-10 20:30N 47°52' W 122°23'1 1.8
2017-Dec-10 20:00N 47°52' W 122°24'1 1.2
2017-Dec-10 19:30N 47°52' W 122°25'0 0.4
2017-Dec-10 19:01N 47°52' W 122°25'0 0.5
2017-Dec-10 18:30N 47°52' W 122°24'3 6.3
2017-Dec-10 18:00N 47°49' W 122°25'612.0
2017-Dec-10 17:30N 47°43' W 122°25'510.7
2017-Dec-10 17:00N 47°37' W 122°25'3 5.9
2017-Dec-10 16:30N 47°35' W 122°21'0 0.4
2017-Dec-10 15:57N 47°35' W 122°21'0 0.0
2017-Dec-10 15:30N 47°35' W 122°21'0 0.0
2017-Dec-10 15:00N 47°35' W 122°21'0 0.0
2017-Dec-10 14:30N 47°35' W 122°21'0 0.0
2017-Dec-10 13:57N 47°35' W 122°21'0 0.0
2017-Dec-10 13:30N 47°35' W 122°21'0 0.0
2017-Dec-10 13:00N 47°35' W 122°21'0 0.0
2017-Dec-10 12:30N 47°35' W 122°21'0 0.0
2017-Dec-10 12:00N 47°35' W 122°21'0 0.0
2017-Dec-10 11:30N 47°35' W 122°21'0 0.0
2017-Dec-10 11:00N 47°35' W 122°21'0 0.0
2017-Dec-10 10:30N 47°35' W 122°21'0 0.0
2017-Dec-10 09:56N 47°35' W 122°21'0 0.0
2017-Dec-10 09:30N 47°35' W 122°21'0 0.0
2017-Dec-10 09:00N 47°35' W 122°21'0 0.0
2017-Dec-10 08:30N 47°35' W 122°21'0 0.0
2017-Dec-10 07:59N 47°35' W 122°21'0 0.0
2017-Dec-10 07:30N 47°35' W 122°21'0 0.0
2017-Dec-10 07:00N 47°35' W 122°21'0 0.0
2017-Dec-10 06:29N 47°35' W 122°21'0 0.0
2017-Dec-10 05:56N 47°35' W 122°21'0 0.0
2017-Dec-10 05:29N 47°35' W 122°21'0 0.0
2017-Dec-10 04:59N 47°35' W 122°21'0 0.0
2017-Dec-10 04:30N 47°35' W 122°21'0 0.0
2017-Dec-10 03:59N 47°35' W 122°21'0 0.1
2017-Dec-10 03:30N 47°35' W 122°21'1 1.9
2017-Dec-10 03:00N 47°36' W 122°22'5 9.9
2017-Dec-10 02:30N 47°40' W 122°27'612.3
2017-Dec-10 02:00N 47°46' W 122°25'510.8
2017-Dec-10 01:30N 47°51' W 122°24'0 0.4
2017-Dec-10 01:00N 47°51' W 122°24'0 0.5
2017-Dec-10 00:30N 47°52' W 122°24'0 0.8
2017-Dec-10 00:01N 47°52' W 122°24'1 1.1
2017-Dec-09 23:31N 47°52' W 122°25'0 0.2
2017-Dec-09 23:00N 47°52' W 122°25'0 0.1
2017-Dec-09 22:30N 47°52' W 122°25'1 1.1
2017-Dec-09 22:00N 47°52' W 122°24'1 1.8
2017-Dec-09 21:30N 47°53' W 122°23'1 2.1
2017-Dec-09 21:00N 47°52' W 122°24'5 9.2
2017-Dec-09 20:30N 47°47' W 122°25'4 8.0
2017-Dec-09 20:00N 47°43' W 122°24'0 0.5
2017-Dec-09 19:30N 47°43' W 122°24'0 0.4
2017-Dec-09 19:00N 47°43' W 122°25'0 0.5
2017-Dec-09 18:30N 47°43' W 122°25'0 0.5
2017-Dec-09 18:00N 47°43' W 122°25'1 2.3
2017-Dec-09 17:30N 47°41' W 122°26'4 8.6
2017-Dec-09 17:00N 47°37' W 122°24'3 5.3
2017-Dec-09 16:28N 47°35' W 122°21'0 0.0
2017-Dec-09 15:58N 47°35' W 122°21'0 0.0
2017-Dec-09 15:22N 47°35' W 122°21'0 0.0
2017-Dec-09 14:58N 47°35' W 122°21'0 0.0
2017-Dec-09 14:28N 47°35' W 122°21'0 0.0
2017-Dec-09 13:58N 47°35' W 122°21'0 0.0
2017-Dec-09 13:28N 47°35' W 122°21'0 0.0
2017-Dec-09 12:58N 47°35' W 122°21'0 0.0
2017-Dec-09 12:28N 47°35' W 122°21'0 0.0
2017-Dec-09 11:58N 47°35' W 122°21'0 0.0
2017-Dec-09 11:28N 47°35' W 122°21'0 0.0
2017-Dec-09 10:58N 47°35' W 122°21'0 0.0
2017-Dec-09 10:28N 47°35' W 122°21'0 0.0
2017-Dec-09 09:58N 47°35' W 122°21'0 0.0
2017-Dec-09 09:25N 47°35' W 122°21'0 0.0
2017-Dec-09 08:58N 47°35' W 122°21'0 0.0
2017-Dec-09 08:28N 47°35' W 122°21'0 0.0
2017-Dec-09 07:58N 47°35' W 122°21'0 0.0
2017-Dec-09 07:28N 47°35' W 122°21'0 0.0
2017-Dec-09 06:58N 47°35' W 122°21'0 0.0
2017-Dec-09 06:28N 47°35' W 122°21'0 0.0
2017-Dec-09 05:58N 47°35' W 122°21'0 0.0
2017-Dec-09 05:28N 47°35' W 122°21'0 0.0
2017-Dec-09 04:58N 47°35' W 122°21'0 0.0
2017-Dec-09 04:28N 47°35' W 122°21'0 0.0
2017-Dec-09 03:58N 47°35' W 122°21'0 0.0
2017-Dec-09 03:28N 47°35' W 122°21'0 0.0
2017-Dec-09 02:58N 47°35' W 122°21'0 0.0
2017-Dec-09 02:28N 47°35' W 122°21'0 0.0
2017-Dec-09 01:58N 47°35' W 122°21'0 0.0
2017-Dec-09 01:28N 47°35' W 122°21'0 0.0
2017-Dec-09 00:58N 47°35' W 122°21'0 0.0
2017-Dec-09 00:28N 47°35' W 122°21'0 0.0
2017-Dec-08 23:58N 47°35' W 122°21'0 0.0
2017-Dec-08 23:28N 47°35' W 122°21'0 0.0
2017-Dec-08 22:58N 47°35' W 122°21'0 0.0
2017-Dec-08 22:28N 47°35' W 122°21'0 0.0
2017-Dec-08 21:59N 47°35' W 122°21'0 0.6
2017-Dec-08 21:30N 47°36' W 122°21'3 5.2
2017-Dec-08 21:00N 47°37' W 122°24'510.4
2017-Dec-08 20:30N 47°42' W 122°25'2 4.2
2017-Dec-08 20:00N 47°44' W 122°25'0 0.4
2017-Dec-08 19:31N 47°45' W 122°24'1 1.6
2017-Dec-08 19:00N 47°44' W 122°25'2 3.1
2017-Dec-08 18:31N 47°45' W 122°25'510.8
2017-Dec-08 18:00N 47°51' W 122°24'4 8.2
2017-Dec-08 17:31N 47°47' W 122°25'5 9.9
2017-Dec-08 17:00N 47°42' W 122°26'2 4.1
2017-Dec-08 16:30N 47°40' W 122°27'611.2
2017-Dec-08 16:00N 47°36' W 122°21'0 0.6
2017-Dec-08 15:29N 47°35' W 122°21'0 0.0
2017-Dec-08 14:59N 47°35' W 122°21'0 0.0
2017-Dec-08 14:29N 47°35' W 122°21'0 0.0
2017-Dec-08 13:55N 47°35' W 122°21'0 0.0
2017-Dec-08 13:25N 47°35' W 122°21'0 0.0
2017-Dec-08 12:59N 47°35' W 122°21'0 0.0
2017-Dec-08 12:29N 47°35' W 122°21'0 0.0
2017-Dec-08 11:59N 47°35' W 122°21'0 0.0
2017-Dec-08 11:29N 47°35' W 122°21'0 0.0
2017-Dec-08 10:59N 47°35' W 122°21'0 0.0
2017-Dec-08 10:29N 47°35' W 122°21'0 0.0
2017-Dec-08 09:59N 47°35' W 122°21'0 0.0
2017-Dec-08 09:29N 47°35' W 122°21'0 0.0
2017-Dec-08 08:59N 47°35' W 122°21'0 0.0
2017-Dec-08 08:29N 47°35' W 122°21'0 0.0
2017-Dec-08 07:59N 47°35' W 122°21'0 0.0
2017-Dec-08 07:28N 47°35' W 122°21'0 0.0
2017-Dec-08 06:59N 47°35' W 122°21'0 0.0
2017-Dec-08 06:29N 47°35' W 122°21'0 0.0
2017-Dec-08 05:59N 47°35' W 122°21'0 0.0
2017-Dec-08 05:29N 47°35' W 122°21'0 0.0
2017-Dec-08 04:59N 47°35' W 122°21'0 0.0
2017-Dec-08 04:29N 47°35' W 122°21'0 0.0
2017-Dec-08 03:58N 47°35' W 122°21'0 0.0
2017-Dec-08 03:29N 47°35' W 122°21'0 0.0
2017-Dec-08 02:59N 47°35' W 122°21'0 0.0
2017-Dec-08 02:30N 47°35' W 122°21'1 1.2
2017-Dec-08 02:00N 47°36' W 122°22'5 9.4
2017-Dec-08 01:30N 47°39' W 122°27'612.8
2017-Dec-08 01:00N 47°45' W 122°25'612.0
2017-Dec-08 00:30N 47°51' W 122°23'0 0.8
2017-Dec-08 00:00N 47°51' W 122°22'2 3.6
2017-Dec-07 23:30N 47°53' W 122°21'1 2.0
2017-Dec-07 23:00N 47°54' W 122°21'5 9.5
2017-Dec-07 22:30N 47°50' W 122°25'612.0
2017-Dec-07 22:00N 47°55' W 122°21'4 7.3
2017-Dec-07 21:30N 47°53' W 122°24'611.4
2017-Dec-07 21:00N 47°47' W 122°25'2 3.3
2017-Dec-07 20:30N 47°45' W 122°25'714.0
2017-Dec-07 20:01N 47°52' W 122°24'2 4.1
2017-Dec-07 19:31N 47°54' W 122°22'714.9
2017-Dec-07 19:00N 47°46' W 122°25'0 0.6
2017-Dec-07 18:31N 47°47' W 122°25'4 7.8
2017-Dec-07 18:01N 47°43' W 122°25'0 0.6
2017-Dec-07 17:30N 47°43' W 122°25'1 2.5
2017-Dec-07 17:00N 47°41' W 122°26'510.4
2017-Dec-07 16:31N 47°37' W 122°23'2 3.2
2017-Dec-07 15:59N 47°35' W 122°21'0 0.0
2017-Dec-07 15:26N 47°35' W 122°21'0 0.0
2017-Dec-07 14:59N 47°35' W 122°21'0 0.0
2017-Dec-07 14:29N 47°35' W 122°21'0 0.0
2017-Dec-07 13:59N 47°35' W 122°21'0 0.0
2017-Dec-07 13:29N 47°35' W 122°21'0 0.0
2017-Dec-07 12:59N 47°35' W 122°21'0 0.0
2017-Dec-07 12:29N 47°35' W 122°21'0 0.0
2017-Dec-07 11:59N 47°35' W 122°21'0 0.0
2017-Dec-07 11:29N 47°35' W 122°21'0 0.0
2017-Dec-07 10:59N 47°35' W 122°21'0 0.0
2017-Dec-07 10:29N 47°35' W 122°21'0 0.0
2017-Dec-07 09:59N 47°35' W 122°21'0 0.0
2017-Dec-07 09:29N 47°35' W 122°21'0 0.0
2017-Dec-07 08:59N 47°35' W 122°21'0 0.0
2017-Dec-07 08:29N 47°35' W 122°21'0 0.0
2017-Dec-07 07:59N 47°35' W 122°21'0 0.0
2017-Dec-07 07:29N 47°35' W 122°21'0 0.0
2017-Dec-07 06:59N 47°35' W 122°21'0 0.0
2017-Dec-07 06:29N 47°35' W 122°21'0 0.0
2017-Dec-07 05:59N 47°35' W 122°21'0 0.0
2017-Dec-07 05:30N 47°35' W 122°21'0 1.0
2017-Dec-07 05:00N 47°36' W 122°22'2 4.9
2017-Dec-07 04:30N 47°37' W 122°24'611.9
2017-Dec-07 04:00N 47°43' W 122°25'713.3
2017-Dec-07 03:30N 47°50' W 122°25'3 5.3
2017-Dec-07 03:00N 47°52' W 122°23'510.0
2017-Dec-07 02:30N 47°47' W 122°25'3 6.8
2017-Dec-07 02:00N 47°44' W 122°25'611.6
2017-Dec-07 01:30N 47°50' W 122°25'3 5.4
2017-Dec-07 01:00N 47°52' W 122°23'0 0.8
2017-Dec-07 00:30N 47°52' W 122°23'0 0.8
2017-Dec-07 00:00N 47°53' W 122°22'3 5.5
2017-Dec-06 23:30N 47°55' W 122°21'1 1.4
2017-Dec-06 23:00N 47°54' W 122°21'5 9.2
2017-Dec-06 22:30N 47°50' W 122°25'3 6.6
2017-Dec-06 22:00N 47°53' W 122°22'2 4.2
2017-Dec-06 21:31N 47°55' W 122°21'3 6.8
2017-Dec-06 21:00N 47°52' W 122°23'  
2017-Dec-04 10:29N 47°35' W 122°21'0 0.0
2017-Dec-04 09:58N 47°35' W 122°21'0 0.0
2017-Dec-04 09:28N 47°35' W 122°21'0 0.0
2017-Dec-04 08:58N 47°35' W 122°21'0 0.0
2017-Dec-04 08:28N 47°35' W 122°21'0 0.0
2017-Dec-04 07:56N 47°35' W 122°21'0 0.0
2017-Dec-04 07:29N 47°35' W 122°21'0 0.0
2017-Dec-04 06:59N 47°35' W 122°21'0 0.0
2017-Dec-04 06:29N 47°35' W 122°21'0 0.0
2017-Dec-04 05:59N 47°35' W 122°21'0 0.0
2017-Dec-04 05:29N 47°35' W 122°21'0 0.0
2017-Dec-04 04:58N 47°35' W 122°21'0 0.0
2017-Dec-04 04:22N 47°35' W 122°21'0 0.0
2017-Dec-04 03:58N 47°35' W 122°21'0 0.0
2017-Dec-04 03:28N 47°35' W 122°21'0 0.0
2017-Dec-04 02:58N 47°35' W 122°21'0 0.0
2017-Dec-04 02:29N 47°35' W 122°21'0 0.0
2017-Dec-04 01:58N 47°35' W 122°21'0 0.0
2017-Dec-04 01:28N 47°35' W 122°21'0 0.0
2017-Dec-04 00:59N 47°35' W 122°21'0 0.0
2017-Dec-04 00:28N 47°35' W 122°21'0 0.0
2017-Dec-03 23:59N 47°35' W 122°21'0 0.0
2017-Dec-03 23:29N 47°35' W 122°21'0 0.0
2017-Dec-03 22:59N 47°35' W 122°21'0 0.0
2017-Dec-03 22:29N 47°35' W 122°21'0 0.0
2017-Dec-03 21:59N 47°35' W 122°21'0 0.0
2017-Dec-03 21:28N 47°35' W 122°21'0 0.0
2017-Dec-03 20:58N 47°35' W 122°21'0 0.0
2017-Dec-03 20:28N 47°35' W 122°21'0 0.0
2017-Dec-03 19:58N 47°35' W 122°21'0 0.0
2017-Dec-03 19:29N 47°35' W 122°21'0 0.0
2017-Dec-03 18:48N 47°35' W 122°21'0 0.0
2017-Dec-03 18:30N 47°35' W 122°21'0 0.0
2017-Dec-03 17:50N 47°35' W 122°21'0 0.0
2017-Dec-03 17:30N 47°35' W 122°21'0 0.0
2017-Dec-03 17:00N 47°35' W 122°21'0 0.0
2017-Dec-03 16:30N 47°35' W 122°21'0 0.0
2017-Dec-03 16:00N 47°35' W 122°21'0 0.0
2017-Dec-03 15:30N 47°35' W 122°21'0 0.0
2017-Dec-03 15:00N 47°35' W 122°21'0 0.0
2017-Dec-03 14:30N 47°35' W 122°21'0 0.0
2017-Dec-03 14:00N 47°35' W 122°21'0 0.0
2017-Dec-03 13:29N 47°35' W 122°21'0 0.0
2017-Dec-03 13:00N 47°35' W 122°21'0 0.0
2017-Dec-03 12:30N 47°35' W 122°21'0 0.0
2017-Dec-03 11:56N 47°35' W 122°21'0 0.0
2017-Dec-03 11:26N 47°35' W 122°21'0 0.0
2017-Dec-03 11:00N 47°35' W 122°21'0 0.0
2017-Dec-03 10:26N 47°35' W 122°21'0 0.0
2017-Dec-03 10:00N 47°35' W 122°21'0 0.0
2017-Dec-03 09:30N 47°35' W 122°21'0 0.0
2017-Dec-03 08:59N 47°35' W 122°21'0 0.0
2017-Dec-03 08:29N 47°35' W 122°21'0 0.0
2017-Dec-03 08:00N 47°35' W 122°21'0 0.0
2017-Dec-03 07:30N 47°35' W 122°21'0 0.0
2017-Dec-03 06:57N 47°35' W 122°21'0 0.1
2017-Dec-03 06:31N 47°35' W 122°21'1 1.1
2017-Dec-03 06:01N 47°36' W 122°22'2 4.3
2017-Dec-03 05:31N 47°37' W 122°25'510.3
2017-Dec-03 05:00N 47°42' W 122°25'815.1
2017-Dec-03 04:30N 47°50' W 122°25'3 5.6
2017-Dec-03 04:00N 47°47' W 122°25'1 2.5
2017-Dec-03 03:30N 47°45' W 122°25'611.4
2017-Dec-03 03:00N 47°51' W 122°25'815.6
2017-Dec-03 02:30N 47°43' W 122°24'4 8.4
2017-Dec-03 02:01N 47°48' W 122°25'3 5.3
2017-Dec-03 01:30N 47°50' W 122°25'612.8
2017-Dec-03 01:00N 47°44' W 122°25'3 5.4
2017-Dec-03 00:30N 47°47' W 122°25'4 7.2
2017-Dec-03 00:00N 47°50' W 122°25'3 6.7
2017-Dec-02 23:30N 47°47' W 122°25'1 2.7
2017-Dec-02 23:00N 47°45' W 122°25'510.6
2017-Dec-02 22:31N 47°51' W 122°24'5 9.4
2017-Dec-02 22:01N 47°46' W 122°25'611.9
2017-Dec-02 21:31N 47°40' W 122°27'1 1.6
2017-Dec-02 21:00N 47°41' W 122°26'611.3
2017-Dec-02 20:31N 47°46' W 122°25'5 9.6
2017-Dec-02 20:00N 47°51' W 122°25'3 5.1
2017-Dec-02 19:30N 47°49' W 122°25'4 8.9
2017-Dec-02 19:01N 47°44' W 122°25'2 4.8
2017-Dec-02 18:30N 47°42' W 122°26'2 4.4
2017-Dec-02 18:01N 47°40' W 122°27'3 5.6
2017-Dec-02 17:31N 47°37' W 122°25'3 5.8
2017-Dec-02 17:01N 47°36' W 122°21'0 0.8
2017-Dec-02 16:30N 47°35' W 122°21'0 0.0
2017-Dec-02 15:59N 47°35' W 122°21'0 0.0
2017-Dec-02 15:29N 47°35' W 122°21'0 0.0
2017-Dec-02 14:59N 47°35' W 122°21'0 0.0
2017-Dec-02 14:28N 47°35' W 122°21'0 0.0
2017-Dec-02 14:00N 47°35' W 122°21'0 0.0
2017-Dec-02 13:29N 47°35' W 122°21'0 0.0
2017-Dec-02 13:01N 47°35' W 122°21'0 0.0
2017-Dec-02 12:31N 47°35' W 122°21'0 0.0
2017-Dec-02 12:00N 47°35' W 122°21'0 0.0
2017-Dec-02 11:28N 47°35' W 122°21'0 0.0
2017-Dec-02 10:58N 47°35' W 122°21'0 0.0
2017-Dec-02 10:30N 47°35' W 122°21'0 0.0
2017-Dec-02 10:01N 47°35' W 122°21'0 0.0
2017-Dec-02 09:28N 47°35' W 122°21'0 0.0
2017-Dec-02 08:59N 47°35' W 122°21'0 0.0
2017-Dec-02 08:30N 47°35' W 122°21'0 0.0
2017-Dec-02 08:00N 47°35' W 122°21'0 0.0
2017-Dec-02 07:30N 47°35' W 122°21'0 0.0
2017-Dec-02 07:00N 47°35' W 122°21'0 0.0
2017-Dec-02 06:30N 47°35' W 122°21'0 0.0
2017-Dec-02 06:00N 47°35' W 122°21'0 0.0
2017-Dec-02 05:24N 47°35' W 122°21'0 0.0
2017-Dec-02 05:01N 47°35' W 122°21'0 0.0
2017-Dec-02 04:30N 47°35' W 122°21'0 0.0
2017-Dec-02 04:00N 47°35' W 122°21'0 0.0
2017-Dec-02 03:30N 47°35' W 122°21'0 0.0
2017-Dec-02 02:57N 47°35' W 122°21'0 0.0
2017-Dec-02 02:27N 47°35' W 122°21'0 0.0
2017-Dec-02 02:00N 47°35' W 122°21'0 0.0
2017-Dec-02 01:30N 47°35' W 122°21'0 0.0
2017-Dec-02 01:00N 47°35' W 122°21'0 0.0
2017-Dec-02 00:30N 47°35' W 122°21'0 0.0
2017-Dec-02 00:00N 47°35' W 122°21'0 0.0
2017-Dec-01 23:30N 47°35' W 122°21'0 0.0
2017-Dec-01 23:00N 47°35' W 122°21'0 0.2
2017-Dec-01 22:31N 47°35' W 122°21'1 2.0
2017-Dec-01 22:01N 47°36' W 122°22'0 0.7
2017-Dec-01 21:31N 47°36' W 122°22'0 0.8
2017-Dec-01 21:01N 47°36' W 122°21'0 0.8
2017-Dec-01 20:31N 47°36' W 122°22'1 1.7
2017-Dec-01 20:01N 47°36' W 122°22'1 1.3
2017-Dec-01 19:31N 47°36' W 122°22'0 0.7
2017-Dec-01 19:00N 47°36' W 122°22'1 1.2
2017-Dec-01 18:30N 47°36' W 122°22'0 0.9
2017-Dec-01 18:01N 47°36' W 122°22'1 1.9
2017-Dec-01 17:31N 47°36' W 122°23'0 0.5
2017-Dec-01 17:01N 47°36' W 122°23'  
Track history (hours):
 
Tides and Currents Weather Stations Pressure Air Temp Water Temp Dewpoint Dewpoint Depression Visibility Wind Speed Wind Dir Waves Ship Positions

Oceanographic research ship Thomas G. Thompson (USA)

Ship's website: http://www.ocean.washington.edu/vessels/TGT/tgt.html

Detailed information on ship capabilities available from University of Delaware's Ocean Information Center.

Owner: UNIVERSITY OF WASHINGTON, SEATTLE, WA. More information available from US FCC via Universal Licensing System and Coast Guard Vessel Documentation Center.

Last reported at 2017-Dec-11 16:59 UTC. Time now 2017-Dec-13 13:15 UTC.
Position N 47°35' W 122°21'.

Type: Other ship. MMSI: 366345000.

Date/timePositionNaut miles runAvg speedWind from/ knotsBaromVisibWave heightAir tempDewpointWater temp
2017-Dec-11 16:59N 47°35' W 122°21'0 0.0
2017-Dec-11 16:29N 47°35' W 122°21'0 0.0
2017-Dec-11 15:59N 47°35' W 122°21'0 0.0
2017-Dec-11 15:29N 47°35' W 122°21'0 0.0
2017-Dec-11 14:59N 47°35' W 122°21'0 0.0
2017-Dec-11 14:30N 47°35' W 122°21'0 0.0
2017-Dec-11 13:59N 47°35' W 122°21'0 0.0
2017-Dec-11 13:29N 47°35' W 122°21'0 0.0
2017-Dec-11 12:59N 47°35' W 122°21'0 0.0
2017-Dec-11 12:26N 47°35' W 122°21'0 0.0
2017-Dec-11 11:59N 47°35' W 122°21'0 0.0
2017-Dec-11 11:29N 47°35' W 122°21'0 0.0
2017-Dec-11 10:59N 47°35' W 122°21'0 0.0
2017-Dec-11 10:29N 47°35' W 122°21'0 0.0
2017-Dec-11 09:59N 47°35' W 122°21'0 0.0
2017-Dec-11 09:29N 47°35' W 122°21'0 0.0
2017-Dec-11 08:59N 47°35' W 122°21'0 0.0
2017-Dec-11 08:29N 47°35' W 122°21'0 0.0
2017-Dec-11 07:59N 47°35' W 122°21'0 0.0
2017-Dec-11 07:31N 47°35' W 122°21'1 1.2
2017-Dec-11 07:00N 47°36' W 122°22'510.4
2017-Dec-11 06:30N 47°40' W 122°27'612.6
2017-Dec-11 06:01N 47°46' W 122°25'510.1
2017-Dec-11 05:31N 47°51' W 122°23'0 0.5
2017-Dec-11 05:00N 47°51' W 122°23'1 1.3
2017-Dec-11 04:31N 47°51' W 122°23'1 1.1
2017-Dec-11 04:00N 47°52' W 122°23'0 0.5
2017-Dec-11 03:30N 47°52' W 122°23'1 2.6
2017-Dec-11 03:01N 47°51' W 122°24'1 2.6
2017-Dec-11 02:30N 47°52' W 122°24'0 0.8
2017-Dec-11 02:00N 47°52' W 122°24'0 0.5
2017-Dec-11 01:30N 47°52' W 122°23'2 3.6
2017-Dec-11 01:00N 47°51' W 122°25'4 7.1
2017-Dec-11 00:30N 47°53' W 122°22'3 6.0
2017-Dec-11 00:00N 47°51' W 122°25'2 4.1
2017-Dec-10 23:30N 47°53' W 122°23'2 3.6
2017-Dec-10 23:00N 47°51' W 122°25'0 1.0
2017-Dec-10 22:30N 47°51' W 122°24'0 1.0
2017-Dec-10 22:00N 47°52' W 122°23'0 0.7
2017-Dec-10 21:30N 47°51' W 122°23'0 0.5
2017-Dec-10 21:00N 47°51' W 122°23'0 0.9
2017-Dec-10 20:30N 47°52' W 122°23'1 1.8
2017-Dec-10 20:00N 47°52' W 122°24'1 1.2
2017-Dec-10 19:30N 47°52' W 122°25'0 0.4
2017-Dec-10 19:01N 47°52' W 122°25'0 0.5
2017-Dec-10 18:30N 47°52' W 122°24'3 6.3
2017-Dec-10 18:00N 47°49' W 122°25'612.0
2017-Dec-10 17:30N 47°43' W 122°25'510.7
2017-Dec-10 17:00N 47°37' W 122°25'3 5.9
2017-Dec-10 16:30N 47°35' W 122°21'0 0.4
2017-Dec-10 15:57N 47°35' W 122°21'0 0.0
2017-Dec-10 15:30N 47°35' W 122°21'0 0.0
2017-Dec-10 15:00N 47°35' W 122°21'0 0.0
2017-Dec-10 14:30N 47°35' W 122°21'0 0.0
2017-Dec-10 13:57N 47°35' W 122°21'0 0.0
2017-Dec-10 13:30N 47°35' W 122°21'0 0.0
2017-Dec-10 13:00N 47°35' W 122°21'0 0.0
2017-Dec-10 12:30N 47°35' W 122°21'0 0.0
2017-Dec-10 12:00N 47°35' W 122°21'0 0.0
2017-Dec-10 11:30N 47°35' W 122°21'0 0.0
2017-Dec-10 11:00N 47°35' W 122°21'0 0.0
2017-Dec-10 10:30N 47°35' W 122°21'0 0.0
2017-Dec-10 09:56N 47°35' W 122°21'0 0.0
2017-Dec-10 09:30N 47°35' W 122°21'0 0.0
2017-Dec-10 09:00N 47°35' W 122°21'0 0.0
2017-Dec-10 08:30N 47°35' W 122°21'0 0.0
2017-Dec-10 07:59N 47°35' W 122°21'0 0.0
2017-Dec-10 07:30N 47°35' W 122°21'0 0.0
2017-Dec-10 07:00N 47°35' W 122°21'0 0.0
2017-Dec-10 06:29N 47°35' W 122°21'0 0.0
2017-Dec-10 05:56N 47°35' W 122°21'0 0.0
2017-Dec-10 05:29N 47°35' W 122°21'0 0.0
2017-Dec-10 04:59N 47°35' W 122°21'0 0.0
2017-Dec-10 04:30N 47°35' W 122°21'0 0.0
2017-Dec-10 03:59N 47°35' W 122°21'0 0.1
2017-Dec-10 03:30N 47°35' W 122°21'1 1.9
2017-Dec-10 03:00N 47°36' W 122°22'5 9.9
2017-Dec-10 02:30N 47°40' W 122°27'612.3
2017-Dec-10 02:00N 47°46' W 122°25'510.8
2017-Dec-10 01:30N 47°51' W 122°24'0 0.4
2017-Dec-10 01:00N 47°51' W 122°24'0 0.5
2017-Dec-10 00:30N 47°52' W 122°24'0 0.8
2017-Dec-10 00:01N 47°52' W 122°24'1 1.1
2017-Dec-09 23:31N 47°52' W 122°25'0 0.2
2017-Dec-09 23:00N 47°52' W 122°25'0 0.1
2017-Dec-09 22:30N 47°52' W 122°25'1 1.1
2017-Dec-09 22:00N 47°52' W 122°24'1 1.8
2017-Dec-09 21:30N 47°53' W 122°23'1 2.1
2017-Dec-09 21:00N 47°52' W 122°24'5 9.2
2017-Dec-09 20:30N 47°47' W 122°25'4 8.0
2017-Dec-09 20:00N 47°43' W 122°24'0 0.5
2017-Dec-09 19:30N 47°43' W 122°24'0 0.4
2017-Dec-09 19:00N 47°43' W 122°25'0 0.5
2017-Dec-09 18:30N 47°43' W 122°25'0 0.5
2017-Dec-09 18:00N 47°43' W 122°25'1 2.3
2017-Dec-09 17:30N 47°41' W 122°26'4 8.6
2017-Dec-09 17:00N 47°37' W 122°24'3 5.3
2017-Dec-09 16:28N 47°35' W 122°21'0 0.0
2017-Dec-09 15:58N 47°35' W 122°21'0 0.0
2017-Dec-09 15:22N 47°35' W 122°21'0 0.0
2017-Dec-09 14:58N 47°35' W 122°21'0 0.0
2017-Dec-09 14:28N 47°35' W 122°21'0 0.0
2017-Dec-09 13:58N 47°35' W 122°21'0 0.0
2017-Dec-09 13:28N 47°35' W 122°21'0 0.0
2017-Dec-09 12:58N 47°35' W 122°21'0 0.0
2017-Dec-09 12:28N 47°35' W 122°21'0 0.0
2017-Dec-09 11:58N 47°35' W 122°21'0 0.0
2017-Dec-09 11:28N 47°35' W 122°21'0 0.0
2017-Dec-09 10:58N 47°35' W 122°21'0 0.0
2017-Dec-09 10:28N 47°35' W 122°21'0 0.0
2017-Dec-09 09:58N 47°35' W 122°21'0 0.0
2017-Dec-09 09:25N 47°35' W 122°21'0 0.0
2017-Dec-09 08:58N 47°35' W 122°21'0 0.0
2017-Dec-09 08:28N 47°35' W 122°21'0 0.0
2017-Dec-09 07:58N 47°35' W 122°21'0 0.0
2017-Dec-09 07:28N 47°35' W 122°21'0 0.0
2017-Dec-09 06:58N 47°35' W 122°21'0 0.0
2017-Dec-09 06:28N 47°35' W 122°21'0 0.0
2017-Dec-09 05:58N 47°35' W 122°21'0 0.0
2017-Dec-09 05:28N 47°35' W 122°21'0 0.0
2017-Dec-09 04:58N 47°35' W 122°21'0 0.0
2017-Dec-09 04:28N 47°35' W 122°21'0 0.0
2017-Dec-09 03:58N 47°35' W 122°21'0 0.0
2017-Dec-09 03:28N 47°35' W 122°21'0 0.0
2017-Dec-09 02:58N 47°35' W 122°21'0 0.0
2017-Dec-09 02:28N 47°35' W 122°21'0 0.0
2017-Dec-09 01:58N 47°35' W 122°21'0 0.0
2017-Dec-09 01:28N 47°35' W 122°21'0 0.0
2017-Dec-09 00:58N 47°35' W 122°21'0 0.0
2017-Dec-09 00:28N 47°35' W 122°21'0 0.0
2017-Dec-08 23:58N 47°35' W 122°21'0 0.0
2017-Dec-08 23:28N 47°35' W 122°21'0 0.0
2017-Dec-08 22:58N 47°35' W 122°21'0 0.0
2017-Dec-08 22:28N 47°35' W 122°21'0 0.0
2017-Dec-08 21:59N 47°35' W 122°21'0 0.6
2017-Dec-08 21:30N 47°36' W 122°21'3 5.2
2017-Dec-08 21:00N 47°37' W 122°24'510.4
2017-Dec-08 20:30N 47°42' W 122°25'2 4.2
2017-Dec-08 20:00N 47°44' W 122°25'0 0.4
2017-Dec-08 19:31N 47°45' W 122°24'1 1.6
2017-Dec-08 19:00N 47°44' W 122°25'2 3.1
2017-Dec-08 18:31N 47°45' W 122°25'510.8
2017-Dec-08 18:00N 47°51' W 122°24'4 8.2
2017-Dec-08 17:31N 47°47' W 122°25'5 9.9
2017-Dec-08 17:00N 47°42' W 122°26'2 4.1
2017-Dec-08 16:30N 47°40' W 122°27'611.2
2017-Dec-08 16:00N 47°36' W 122°21'0 0.6
2017-Dec-08 15:29N 47°35' W 122°21'0 0.0
2017-Dec-08 14:59N 47°35' W 122°21'0 0.0
2017-Dec-08 14:29N 47°35' W 122°21'0 0.0
2017-Dec-08 13:55N 47°35' W 122°21'0 0.0
2017-Dec-08 13:25N 47°35' W 122°21'0 0.0
2017-Dec-08 12:59N 47°35' W 122°21'0 0.0
2017-Dec-08 12:29N 47°35' W 122°21'0 0.0
2017-Dec-08 11:59N 47°35' W 122°21'0 0.0
2017-Dec-08 11:29N 47°35' W 122°21'0 0.0
2017-Dec-08 10:59N 47°35' W 122°21'0 0.0
2017-Dec-08 10:29N 47°35' W 122°21'0 0.0
2017-Dec-08 09:59N 47°35' W 122°21'0 0.0
2017-Dec-08 09:29N 47°35' W 122°21'0 0.0
2017-Dec-08 08:59N 47°35' W 122°21'0 0.0
2017-Dec-08 08:29N 47°35' W 122°21'0 0.0
2017-Dec-08 07:59N 47°35' W 122°21'0 0.0
2017-Dec-08 07:28N 47°35' W 122°21'0 0.0
2017-Dec-08 06:59N 47°35' W 122°21'0 0.0
2017-Dec-08 06:29N 47°35' W 122°21'0 0.0
2017-Dec-08 05:59N 47°35' W 122°21'0 0.0
2017-Dec-08 05:29N 47°35' W 122°21'0 0.0
2017-Dec-08 04:59N 47°35' W 122°21'0 0.0
2017-Dec-08 04:29N 47°35' W 122°21'0 0.0
2017-Dec-08 03:58N 47°35' W 122°21'0 0.0
2017-Dec-08 03:29N 47°35' W 122°21'0 0.0
2017-Dec-08 02:59N 47°35' W 122°21'0 0.0
2017-Dec-08 02:30N 47°35' W 122°21'1 1.2
2017-Dec-08 02:00N 47°36' W 122°22'5 9.4
2017-Dec-08 01:30N 47°39' W 122°27'612.8
2017-Dec-08 01:00N 47°45' W 122°25'612.0
2017-Dec-08 00:30N 47°51' W 122°23'0 0.8
2017-Dec-08 00:00N 47°51' W 122°22'2 3.6
2017-Dec-07 23:30N 47°53' W 122°21'1 2.0
2017-Dec-07 23:00N 47°54' W 122°21'5 9.5
2017-Dec-07 22:30N 47°50' W 122°25'612.0
2017-Dec-07 22:00N 47°55' W 122°21'4 7.3
2017-Dec-07 21:30N 47°53' W 122°24'611.4
2017-Dec-07 21:00N 47°47' W 122°25'2 3.3
2017-Dec-07 20:30N 47°45' W 122°25'714.0
2017-Dec-07 20:01N 47°52' W 122°24'2 4.1
2017-Dec-07 19:31N 47°54' W 122°22'714.9
2017-Dec-07 19:00N 47°46' W 122°25'0 0.6
2017-Dec-07 18:31N 47°47' W 122°25'4 7.8
2017-Dec-07 18:01N 47°43' W 122°25'0 0.6
2017-Dec-07 17:30N 47°43' W 122°25'1 2.5
2017-Dec-07 17:00N 47°41' W 122°26'510.4
2017-Dec-07 16:31N 47°37' W 122°23'2 3.2
2017-Dec-07 15:59N 47°35' W 122°21'0 0.0
2017-Dec-07 15:26N 47°35' W 122°21'0 0.0
2017-Dec-07 14:59N 47°35' W 122°21'0 0.0
2017-Dec-07 14:29N 47°35' W 122°21'0 0.0
2017-Dec-07 13:59N 47°35' W 122°21'0 0.0
2017-Dec-07 13:29N 47°35' W 122°21'0 0.0
2017-Dec-07 12:59N 47°35' W 122°21'0 0.0
2017-Dec-07 12:29N 47°35' W 122°21'0 0.0
2017-Dec-07 11:59N 47°35' W 122°21'0 0.0
2017-Dec-07 11:29N 47°35' W 122°21'0 0.0
2017-Dec-07 10:59N 47°35' W 122°21'0 0.0
2017-Dec-07 10:29N 47°35' W 122°21'0 0.0
2017-Dec-07 09:59N 47°35' W 122°21'0 0.0
2017-Dec-07 09:29N 47°35' W 122°21'0 0.0
2017-Dec-07 08:59N 47°35' W 122°21'0 0.0
2017-Dec-07 08:29N 47°35' W 122°21'0 0.0
2017-Dec-07 07:59N 47°35' W 122°21'0 0.0
2017-Dec-07 07:29N 47°35' W 122°21'0 0.0
2017-Dec-07 06:59N 47°35' W 122°21'0 0.0
2017-Dec-07 06:29N 47°35' W 122°21'0 0.0
2017-Dec-07 05:59N 47°35' W 122°21'0 0.0
2017-Dec-07 05:30N 47°35' W 122°21'0 1.0
2017-Dec-07 05:00N 47°36' W 122°22'2 4.9
2017-Dec-07 04:30N 47°37' W 122°24'611.9
2017-Dec-07 04:00N 47°43' W 122°25'713.3
2017-Dec-07 03:30N 47°50' W 122°25'3 5.3
2017-Dec-07 03:00N 47°52' W 122°23'510.0
2017-Dec-07 02:30N 47°47' W 122°25'3 6.8
2017-Dec-07 02:00N 47°44' W 122°25'611.6
2017-Dec-07 01:30N 47°50' W 122°25'3 5.4
2017-Dec-07 01:00N 47°52' W 122°23'0 0.8
2017-Dec-07 00:30N 47°52' W 122°23'0 0.8
2017-Dec-07 00:00N 47°53' W 122°22'3 5.5
2017-Dec-06 23:30N 47°55' W 122°21'1 1.4
2017-Dec-06 23:00N 47°54' W 122°21'5 9.2
2017-Dec-06 22:30N 47°50' W 122°25'3 6.6
2017-Dec-06 22:00N 47°53' W 122°22'2 4.2
2017-Dec-06 21:31N 47°55' W 122°21'3 6.8
2017-Dec-06 21:00N 47°52' W 122°23'  
2017-Dec-04 10:29N 47°35' W 122°21'0 0.0
2017-Dec-04 09:58N 47°35' W 122°21'0 0.0
2017-Dec-04 09:28N 47°35' W 122°21'0 0.0
2017-Dec-04 08:58N 47°35' W 122°21'0 0.0
2017-Dec-04 08:28N 47°35' W 122°21'0 0.0
2017-Dec-04 07:56N 47°35' W 122°21'0 0.0
2017-Dec-04 07:29N 47°35' W 122°21'0 0.0
2017-Dec-04 06:59N 47°35' W 122°21'0 0.0
2017-Dec-04 06:29N 47°35' W 122°21'0 0.0
2017-Dec-04 05:59N 47°35' W 122°21'0 0.0
2017-Dec-04 05:29N 47°35' W 122°21'0 0.0
2017-Dec-04 04:58N 47°35' W 122°21'0 0.0
2017-Dec-04 04:22N 47°35' W 122°21'0 0.0
2017-Dec-04 03:58N 47°35' W 122°21'0 0.0
2017-Dec-04 03:28N 47°35' W 122°21'0 0.0
2017-Dec-04 02:58N 47°35' W 122°21'0 0.0
2017-Dec-04 02:29N 47°35' W 122°21'0 0.0
2017-Dec-04 01:58N 47°35' W 122°21'0 0.0
2017-Dec-04 01:28N 47°35' W 122°21'0 0.0
2017-Dec-04 00:59N 47°35' W 122°21'0 0.0
2017-Dec-04 00:28N 47°35' W 122°21'0 0.0
2017-Dec-03 23:59N 47°35' W 122°21'0 0.0
2017-Dec-03 23:29N 47°35' W 122°21'0 0.0
2017-Dec-03 22:59N 47°35' W 122°21'0 0.0
2017-Dec-03 22:29N 47°35' W 122°21'0 0.0
2017-Dec-03 21:59N 47°35' W 122°21'0 0.0
2017-Dec-03 21:28N 47°35' W 122°21'0 0.0
2017-Dec-03 20:58N 47°35' W 122°21'0 0.0
2017-Dec-03 20:28N 47°35' W 122°21'0 0.0
2017-Dec-03 19:58N 47°35' W 122°21'0 0.0
2017-Dec-03 19:29N 47°35' W 122°21'0 0.0
2017-Dec-03 18:48N 47°35' W 122°21'0 0.0
2017-Dec-03 18:30N 47°35' W 122°21'0 0.0
2017-Dec-03 17:50N 47°35' W 122°21'0 0.0
2017-Dec-03 17:30N 47°35' W 122°21'0 0.0
2017-Dec-03 17:00N 47°35' W 122°21'0 0.0
2017-Dec-03 16:30N 47°35' W 122°21'0 0.0
2017-Dec-03 16:00N 47°35' W 122°21'0 0.0
2017-Dec-03 15:30N 47°35' W 122°21'0 0.0
2017-Dec-03 15:00N 47°35' W 122°21'0 0.0
2017-Dec-03 14:30N 47°35' W 122°21'0 0.0
2017-Dec-03 14:00N 47°35' W 122°21'0 0.0
2017-Dec-03 13:29N 47°35' W 122°21'0 0.0
2017-Dec-03 13:00N 47°35' W 122°21'0 0.0
2017-Dec-03 12:30N 47°35' W 122°21'0 0.0
2017-Dec-03 11:56N 47°35' W 122°21'0 0.0
2017-Dec-03 11:26N 47°35' W 122°21'0 0.0
2017-Dec-03 11:00N 47°35' W 122°21'0 0.0
2017-Dec-03 10:26N 47°35' W 122°21'0 0.0
2017-Dec-03 10:00N 47°35' W 122°21'0 0.0
2017-Dec-03 09:30N 47°35' W 122°21'0 0.0
2017-Dec-03 08:59N 47°35' W 122°21'0 0.0
2017-Dec-03 08:29N 47°35' W 122°21'0 0.0
2017-Dec-03 08:00N 47°35' W 122°21'0 0.0
2017-Dec-03 07:30N 47°35' W 122°21'0 0.0
2017-Dec-03 06:57N 47°35' W 122°21'0 0.1
2017-Dec-03 06:31N 47°35' W 122°21'1 1.1
2017-Dec-03 06:01N 47°36' W 122°22'2 4.3
2017-Dec-03 05:31N 47°37' W 122°25'510.3
2017-Dec-03 05:00N 47°42' W 122°25'815.1
2017-Dec-03 04:30N 47°50' W 122°25'3 5.6
2017-Dec-03 04:00N 47°47' W 122°25'1 2.5
2017-Dec-03 03:30N 47°45' W 122°25'611.4
2017-Dec-03 03:00N 47°51' W 122°25'815.6
2017-Dec-03 02:30N 47°43' W 122°24'4 8.4
2017-Dec-03 02:01N 47°48' W 122°25'3 5.3
2017-Dec-03 01:30N 47°50' W 122°25'612.8
2017-Dec-03 01:00N 47°44' W 122°25'3 5.4
2017-Dec-03 00:30N 47°47' W 122°25'4 7.2
2017-Dec-03 00:00N 47°50' W 122°25'3 6.7
2017-Dec-02 23:30N 47°47' W 122°25'1 2.7
2017-Dec-02 23:00N 47°45' W 122°25'510.6
2017-Dec-02 22:31N 47°51' W 122°24'5 9.4
2017-Dec-02 22:01N 47°46' W 122°25'611.9
2017-Dec-02 21:31N 47°40' W 122°27'1 1.6
2017-Dec-02 21:00N 47°41' W 122°26'611.3
2017-Dec-02 20:31N 47°46' W 122°25'5 9.6
2017-Dec-02 20:00N 47°51' W 122°25'3 5.1
2017-Dec-02 19:30N 47°49' W 122°25'4 8.9
2017-Dec-02 19:01N 47°44' W 122°25'2 4.8
2017-Dec-02 18:30N 47°42' W 122°26'2 4.4
2017-Dec-02 18:01N 47°40' W 122°27'3 5.6
2017-Dec-02 17:31N 47°37' W 122°25'3 5.8
2017-Dec-02 17:01N 47°36' W 122°21'0 0.8
2017-Dec-02 16:30N 47°35' W 122°21'0 0.0
2017-Dec-02 15:59N 47°35' W 122°21'0 0.0
2017-Dec-02 15:29N 47°35' W 122°21'0 0.0
2017-Dec-02 14:59N 47°35' W 122°21'0 0.0
2017-Dec-02 14:28N 47°35' W 122°21'0 0.0
2017-Dec-02 14:00N 47°35' W 122°21'0 0.0
2017-Dec-02 13:29N 47°35' W 122°21'0 0.0
2017-Dec-02 13:01N 47°35' W 122°21'0 0.0
2017-Dec-02 12:31N 47°35' W 122°21'0 0.0
2017-Dec-02 12:00N 47°35' W 122°21'0 0.0
2017-Dec-02 11:28N 47°35' W 122°21'0 0.0
2017-Dec-02 10:58N 47°35' W 122°21'0 0.0
2017-Dec-02 10:30N 47°35' W 122°21'0 0.0
2017-Dec-02 10:01N 47°35' W 122°21'0 0.0
2017-Dec-02 09:28N 47°35' W 122°21'0 0.0
2017-Dec-02 08:59N 47°35' W 122°21'0 0.0
2017-Dec-02 08:30N 47°35' W 122°21'0 0.0
2017-Dec-02 08:00N 47°35' W 122°21'0 0.0
2017-Dec-02 07:30N 47°35' W 122°21'0 0.0
2017-Dec-02 07:00N 47°35' W 122°21'0 0.0
2017-Dec-02 06:30N 47°35' W 122°21'0 0.0
2017-Dec-02 06:00N 47°35' W 122°21'0 0.0
2017-Dec-02 05:24N 47°35' W 122°21'0 0.0
2017-Dec-02 05:01N 47°35' W 122°21'0 0.0
2017-Dec-02 04:30N 47°35' W 122°21'0 0.0
2017-Dec-02 04:00N 47°35' W 122°21'0 0.0
2017-Dec-02 03:30N 47°35' W 122°21'0 0.0
2017-Dec-02 02:57N 47°35' W 122°21'0 0.0
2017-Dec-02 02:27N 47°35' W 122°21'0 0.0
2017-Dec-02 02:00N 47°35' W 122°21'0 0.0
2017-Dec-02 01:30N 47°35' W 122°21'0 0.0
2017-Dec-02 01:00N 47°35' W 122°21'0 0.0
2017-Dec-02 00:30N 47°35' W 122°21'0 0.0
2017-Dec-02 00:00N 47°35' W 122°21'0 0.0
2017-Dec-01 23:30N 47°35' W 122°21'0 0.0
2017-Dec-01 23:00N 47°35' W 122°21'0 0.2
2017-Dec-01 22:31N 47°35' W 122°21'1 2.0
2017-Dec-01 22:01N 47°36' W 122°22'0 0.7
2017-Dec-01 21:31N 47°36' W 122°22'0 0.8
2017-Dec-01 21:01N 47°36' W 122°21'0 0.8
2017-Dec-01 20:31N 47°36' W 122°22'1 1.7
2017-Dec-01 20:01N 47°36' W 122°22'1 1.3
2017-Dec-01 19:31N 47°36' W 122°22'0 0.7
2017-Dec-01 19:00N 47°36' W 122°22'1 1.2
2017-Dec-01 18:30N 47°36' W 122°22'0 0.9
2017-Dec-01 18:01N 47°36' W 122°22'1 1.9
2017-Dec-01 17:31N 47°36' W 122°23'0 0.5
2017-Dec-01 17:01N 47°36' W 122°23'  

Dump ship's entire track history